sensor_id;sensor_type;location;lat;lon;timestamp;P1;durP1;ratioP1;P2;durP2;ratioP2
29774;SDS011;16676;51.202;6.774;2023-08-24T00:01:42;6.40;;;3.80;;
29774;SDS011;16676;51.202;6.774;2023-08-24T00:05:45;8.27;;;3.88;;
29774;SDS011;16676;51.202;6.774;2023-08-24T00:09:48;7.32;;;3.80;;
29774;SDS011;16676;51.202;6.774;2023-08-24T00:13:54;7.15;;;3.80;;
29774;SDS011;16676;51.202;6.774;2023-08-24T00:17:56;10.02;;;3.97;;
29774;SDS011;16676;51.202;6.774;2023-08-24T00:21:59;8.90;;;4.20;;
29774;SDS011;16676;51.202;6.774;2023-08-24T00:26:01;8.25;;;4.25;;
29774;SDS011;16676;51.202;6.774;2023-08-24T00:30:04;9.32;;;4.15;;
29774;SDS011;16676;51.202;6.774;2023-08-24T00:34:07;8.77;;;4.43;;
29774;SDS011;16676;51.202;6.774;2023-08-24T00:38:10;7.97;;;3.92;;
29774;SDS011;16676;51.202;6.774;2023-08-24T00:42:12;8.07;;;4.30;;
29774;SDS011;16676;51.202;6.774;2023-08-24T00:46:15;9.70;;;4.60;;
29774;SDS011;16676;51.202;6.774;2023-08-24T00:50:18;8.93;;;4.55;;
29774;SDS011;16676;51.202;6.774;2023-08-24T00:54:22;7.50;;;4.72;;
29774;SDS011;16676;51.202;6.774;2023-08-24T00:58:24;7.32;;;4.75;;
29774;SDS011;16676;51.202;6.774;2023-08-24T01:02:28;9.98;;;5.40;;
29774;SDS011;16676;51.202;6.774;2023-08-24T01:06:30;8.55;;;5.07;;
29774;SDS011;16676;51.202;6.774;2023-08-24T01:10:35;7.65;;;4.70;;
29774;SDS011;16676;51.202;6.774;2023-08-24T01:14:50;8.18;;;4.55;;
29774;SDS011;16676;51.202;6.774;2023-08-24T01:19:00;10.95;;;4.75;;
29774;SDS011;16676;51.202;6.774;2023-08-24T01:23:07;10.35;;;4.78;;
29774;SDS011;16676;51.202;6.774;2023-08-24T01:27:20;7.55;;;4.47;;
29774;SDS011;16676;51.202;6.774;2023-08-24T01:31:23;11.70;;;5.07;;
29774;SDS011;16676;51.202;6.774;2023-08-24T01:35:26;10.32;;;4.90;;
29774;SDS011;16676;51.202;6.774;2023-08-24T01:39:28;10.82;;;4.93;;
29774;SDS011;16676;51.202;6.774;2023-08-24T01:43:38;8.75;;;4.95;;
29774;SDS011;16676;51.202;6.774;2023-08-24T01:47:41;10.90;;;5.32;;
29774;SDS011;16676;51.202;6.774;2023-08-24T01:51:44;9.40;;;4.90;;
29774;SDS011;16676;51.202;6.774;2023-08-24T01:55:46;14.65;;;4.85;;
29774;SDS011;16676;51.202;6.774;2023-08-24T01:59:50;6.70;;;4.20;;
29774;SDS011;16676;51.202;6.774;2023-08-24T02:03:52;7.30;;;4.53;;
29774;SDS011;16676;51.202;6.774;2023-08-24T02:07:53;8.05;;;4.35;;
29774;SDS011;16676;51.202;6.774;2023-08-24T02:11:57;7.80;;;4.30;;
29774;SDS011;16676;51.202;6.774;2023-08-24T02:16:03;6.60;;;4.03;;
29774;SDS011;16676;51.202;6.774;2023-08-24T02:20:07;10.10;;;4.40;;
29774;SDS011;16676;51.202;6.774;2023-08-24T02:24:09;9.60;;;4.60;;
29774;SDS011;16676;51.202;6.774;2023-08-24T02:28:11;8.70;;;3.90;;
29774;SDS011;16676;51.202;6.774;2023-08-24T02:32:14;7.75;;;3.95;;
29774;SDS011;16676;51.202;6.774;2023-08-24T02:36:16;10.25;;;4.03;;
29774;SDS011;16676;51.202;6.774;2023-08-24T02:40:18;7.93;;;4.20;;
29774;SDS011;16676;51.202;6.774;2023-08-24T02:44:20;10.27;;;4.50;;
29774;SDS011;16676;51.202;6.774;2023-08-24T02:48:24;8.73;;;4.10;;
29774;SDS011;16676;51.202;6.774;2023-08-24T02:52:25;9.70;;;4.65;;
29774;SDS011;16676;51.202;6.774;2023-08-24T02:56:27;8.75;;;4.22;;
29774;SDS011;16676;51.202;6.774;2023-08-24T03:00:29;6.90;;;3.92;;
29774;SDS011;16676;51.202;6.774;2023-08-24T03:04:32;8.57;;;4.40;;
29774;SDS011;16676;51.202;6.774;2023-08-24T03:08:36;9.55;;;3.85;;
29774;SDS011;16676;51.202;6.774;2023-08-24T03:12:38;12.95;;;4.07;;
29774;SDS011;16676;51.202;6.774;2023-08-24T03:16:40;5.80;;;3.90;;
29774;SDS011;16676;51.202;6.774;2023-08-24T03:20:43;13.32;;;4.68;;
29774;SDS011;16676;51.202;6.774;2023-08-24T03:24:46;9.15;;;3.55;;
29774;SDS011;16676;51.202;6.774;2023-08-24T03:28:47;7.63;;;3.85;;
29774;SDS011;16676;51.202;6.774;2023-08-24T03:32:49;8.73;;;3.65;;
29774;SDS011;16676;51.202;6.774;2023-08-24T03:36:53;4.90;;;3.05;;
29774;SDS011;16676;51.202;6.774;2023-08-24T03:40:59;7.85;;;3.45;;
29774;SDS011;16676;51.202;6.774;2023-08-24T03:45:01;5.00;;;3.22;;
29774;SDS011;16676;51.202;6.774;2023-08-24T03:49:03;7.05;;;3.72;;
29774;SDS011;16676;51.202;6.774;2023-08-24T03:53:07;7.80;;;4.10;;
29774;SDS011;16676;51.202;6.774;2023-08-24T03:57:09;7.45;;;3.90;;
29774;SDS011;16676;51.202;6.774;2023-08-24T04:01:11;7.95;;;3.92;;
29774;SDS011;16676;51.202;6.774;2023-08-24T04:05:13;11.95;;;4.63;;
29774;SDS011;16676;51.202;6.774;2023-08-24T04:09:16;10.85;;;4.65;;
29774;SDS011;16676;51.202;6.774;2023-08-24T04:13:18;13.32;;;5.07;;
29774;SDS011;16676;51.202;6.774;2023-08-24T04:17:20;14.80;;;5.20;;
29774;SDS011;16676;51.202;6.774;2023-08-24T04:21:22;8.43;;;4.25;;
29774;SDS011;16676;51.202;6.774;2023-08-24T04:25:25;12.18;;;3.67;;
29774;SDS011;16676;51.202;6.774;2023-08-24T04:29:27;6.93;;;4.32;;
29774;SDS011;16676;51.202;6.774;2023-08-24T04:33:29;11.23;;;4.55;;
29774;SDS011;16676;51.202;6.774;2023-08-24T04:37:31;9.68;;;4.28;;
29774;SDS011;16676;51.202;6.774;2023-08-24T04:41:34;12.07;;;4.18;;
29774;SDS011;16676;51.202;6.774;2023-08-24T04:45:36;10.13;;;4.25;;
29774;SDS011;16676;51.202;6.774;2023-08-24T04:49:38;8.38;;;4.30;;
29774;SDS011;16676;51.202;6.774;2023-08-24T04:53:40;12.35;;;4.30;;
29774;SDS011;16676;51.202;6.774;2023-08-24T04:57:43;11.70;;;4.93;;
29774;SDS011;16676;51.202;6.774;2023-08-24T05:01:45;9.02;;;4.00;;
29774;SDS011;16676;51.202;6.774;2023-08-24T05:05:47;8.32;;;3.92;;
29774;SDS011;16676;51.202;6.774;2023-08-24T05:09:49;8.70;;;4.50;;
29774;SDS011;16676;51.202;6.774;2023-08-24T05:13:52;11.63;;;4.50;;
29774;SDS011;16676;51.202;6.774;2023-08-24T05:17:54;8.65;;;3.88;;
29774;SDS011;16676;51.202;6.774;2023-08-24T05:21:59;7.93;;;4.22;;
29774;SDS011;16676;51.202;6.774;2023-08-24T05:26:01;6.88;;;3.95;;
29774;SDS011;16676;51.202;6.774;2023-08-24T05:30:06;9.30;;;4.20;;
29774;SDS011;16676;51.202;6.774;2023-08-24T05:34:08;9.10;;;4.50;;
29774;SDS011;16676;51.202;6.774;2023-08-24T05:38:10;8.75;;;4.40;;
29774;SDS011;16676;51.202;6.774;2023-08-24T05:42:12;10.70;;;4.03;;
29774;SDS011;16676;51.202;6.774;2023-08-24T05:46:15;7.68;;;4.18;;
29774;SDS011;16676;51.202;6.774;2023-08-24T05:50:17;11.88;;;4.18;;
29774;SDS011;16676;51.202;6.774;2023-08-24T05:54:19;10.02;;;4.07;;
29774;SDS011;16676;51.202;6.774;2023-08-24T05:58:21;6.63;;;3.75;;
29774;SDS011;16676;51.202;6.774;2023-08-24T06:02:25;9.15;;;4.60;;
29774;SDS011;16676;51.202;6.774;2023-08-24T06:06:26;8.20;;;3.97;;
29774;SDS011;16676;51.202;6.774;2023-08-24T06:10:28;8.38;;;4.38;;
29774;SDS011;16676;51.202;6.774;2023-08-24T06:14:31;9.65;;;4.18;;
29774;SDS011;16676;51.202;6.774;2023-08-24T06:18:34;8.38;;;3.88;;
29774;SDS011;16676;51.202;6.774;2023-08-24T06:22:36;12.43;;;4.20;;
29774;SDS011;16676;51.202;6.774;2023-08-24T06:26:38;6.38;;;3.65;;
29774;SDS011;16676;51.202;6.774;2023-08-24T06:30:41;6.97;;;3.80;;
29774;SDS011;16676;51.202;6.774;2023-08-24T06:34:46;8.93;;;3.92;;
29774;SDS011;16676;51.202;6.774;2023-08-24T06:38:48;9.23;;;3.60;;
29774;SDS011;16676;51.202;6.774;2023-08-24T06:42:50;7.22;;;3.83;;
29774;SDS011;16676;51.202;6.774;2023-08-24T06:46:52;10.95;;;4.07;;
29774;SDS011;16676;51.202;6.774;2023-08-24T06:50:55;8.20;;;3.78;;
29774;SDS011;16676;51.202;6.774;2023-08-24T06:54:57;7.18;;;3.72;;
29774;SDS011;16676;51.202;6.774;2023-08-24T06:58:59;7.53;;;3.67;;
29774;SDS011;16676;51.202;6.774;2023-08-24T07:03:01;6.65;;;3.13;;
29774;SDS011;16676;51.202;6.774;2023-08-24T07:07:04;7.45;;;3.50;;
29774;SDS011;16676;51.202;6.774;2023-08-24T07:11:06;8.75;;;3.75;;
29774;SDS011;16676;51.202;6.774;2023-08-24T07:15:09;5.88;;;3.50;;
29774;SDS011;16676;51.202;6.774;2023-08-24T07:19:11;7.85;;;3.17;;
29774;SDS011;16676;51.202;6.774;2023-08-24T07:23:14;5.35;;;3.63;;
29774;SDS011;16676;51.202;6.774;2023-08-24T07:27:16;7.97;;;3.80;;
29774;SDS011;16676;51.202;6.774;2023-08-24T07:31:18;7.78;;;3.28;;
29774;SDS011;16676;51.202;6.774;2023-08-24T07:35:20;5.75;;;3.42;;
29774;SDS011;16676;51.202;6.774;2023-08-24T07:39:26;8.20;;;3.88;;
29774;SDS011;16676;51.202;6.774;2023-08-24T07:43:28;9.10;;;2.97;;
29774;SDS011;16676;51.202;6.774;2023-08-24T07:47:30;5.72;;;3.03;;
29774;SDS011;16676;51.202;6.774;2023-08-24T07:51:32;8.23;;;3.70;;
29774;SDS011;16676;51.202;6.774;2023-08-24T07:55:36;9.90;;;3.83;;
29774;SDS011;16676;51.202;6.774;2023-08-24T07:59:37;9.00;;;3.33;;
29774;SDS011;16676;51.202;6.774;2023-08-24T08:03:39;7.55;;;3.38;;
29774;SDS011;16676;51.202;6.774;2023-08-24T08:07:41;7.75;;;3.30;;
29774;SDS011;16676;51.202;6.774;2023-08-24T08:11:45;8.57;;;3.30;;
29774;SDS011;16676;51.202;6.774;2023-08-24T08:15:47;6.93;;;3.08;;
29774;SDS011;16676;51.202;6.774;2023-08-24T08:19:49;4.18;;;2.65;;
29774;SDS011;16676;51.202;6.774;2023-08-24T08:23:55;9.48;;;3.10;;
29774;SDS011;16676;51.202;6.774;2023-08-24T08:27:58;4.95;;;2.78;;
29774;SDS011;16676;51.202;6.774;2023-08-24T08:32:00;14.05;;;2.88;;
29774;SDS011;16676;51.202;6.774;2023-08-24T08:36:02;5.97;;;3.00;;
29774;SDS011;16676;51.202;6.774;2023-08-24T08:40:08;5.40;;;3.03;;
29774;SDS011;16676;51.202;6.774;2023-08-24T08:44:13;9.80;;;3.00;;
29774;SDS011;16676;51.202;6.774;2023-08-24T08:48:16;8.90;;;2.92;;
29774;SDS011;16676;51.202;6.774;2023-08-24T08:52:18;5.90;;;2.90;;
29774;SDS011;16676;51.202;6.774;2023-08-24T08:56:20;5.13;;;2.50;;
29774;SDS011;16676;51.202;6.774;2023-08-24T09:00:24;7.72;;;2.88;;
29774;SDS011;16676;51.202;6.774;2023-08-24T09:04:26;6.03;;;2.80;;
29774;SDS011;16676;51.202;6.774;2023-08-24T09:08:29;5.10;;;2.72;;
29774;SDS011;16676;51.202;6.774;2023-08-24T09:12:31;6.18;;;2.90;;
29774;SDS011;16676;51.202;6.774;2023-08-24T09:16:35;7.18;;;2.72;;
29774;SDS011;16676;51.202;6.774;2023-08-24T09:20:37;5.63;;;2.83;;
29774;SDS011;16676;51.202;6.774;2023-08-24T09:24:39;6.85;;;2.22;;
29774;SDS011;16676;51.202;6.774;2023-08-24T09:28:42;8.25;;;2.92;;
29774;SDS011;16676;51.202;6.774;2023-08-24T09:32:45;4.38;;;2.50;;
29774;SDS011;16676;51.202;6.774;2023-08-24T09:36:47;4.85;;;2.83;;
29774;SDS011;16676;51.202;6.774;2023-08-24T09:40:50;5.10;;;3.03;;
29774;SDS011;16676;51.202;6.774;2023-08-24T09:44:52;5.35;;;2.60;;
29774;SDS011;16676;51.202;6.774;2023-08-24T09:48:55;4.40;;;2.72;;
29774;SDS011;16676;51.202;6.774;2023-08-24T09:53:00;8.52;;;2.85;;
29774;SDS011;16676;51.202;6.774;2023-08-24T09:57:05;6.85;;;3.10;;
29774;SDS011;16676;51.202;6.774;2023-08-24T10:01:08;8.85;;;2.97;;
29774;SDS011;16676;51.202;6.774;2023-08-24T10:05:12;6.88;;;2.72;;
29774;SDS011;16676;51.202;6.774;2023-08-24T10:09:21;9.05;;;2.90;;
29774;SDS011;16676;51.202;6.774;2023-08-24T10:13:30;4.90;;;2.70;;
29774;SDS011;16676;51.202;6.774;2023-08-24T10:17:37;7.35;;;2.90;;
29774;SDS011;16676;51.202;6.774;2023-08-24T10:21:42;7.68;;;2.80;;
29774;SDS011;16676;51.202;6.774;2023-08-24T10:25:45;6.05;;;2.78;;
29774;SDS011;16676;51.202;6.774;2023-08-24T10:29:48;6.43;;;3.22;;
29774;SDS011;16676;51.202;6.774;2023-08-24T10:33:49;6.63;;;2.45;;
29774;SDS011;16676;51.202;6.774;2023-08-24T10:37:54;5.47;;;2.80;;
29774;SDS011;16676;51.202;6.774;2023-08-24T10:42:00;4.65;;;2.70;;
29774;SDS011;16676;51.202;6.774;2023-08-24T10:46:03;5.80;;;2.67;;
29774;SDS011;16676;51.202;6.774;2023-08-24T10:50:05;5.47;;;2.55;;
29774;SDS011;16676;51.202;6.774;2023-08-24T10:54:09;6.85;;;2.92;;
29774;SDS011;16676;51.202;6.774;2023-08-24T10:58:11;7.25;;;2.67;;
29774;SDS011;16676;51.202;6.774;2023-08-24T11:02:19;7.68;;;2.97;;
29774;SDS011;16676;51.202;6.774;2023-08-24T11:06:21;5.47;;;2.50;;
29774;SDS011;16676;51.202;6.774;2023-08-24T11:10:30;7.32;;;2.70;;
29774;SDS011;16676;51.202;6.774;2023-08-24T11:14:33;7.88;;;2.55;;
29774;SDS011;16676;51.202;6.774;2023-08-24T11:18:51;9.07;;;2.72;;
29774;SDS011;16676;51.202;6.774;2023-08-24T11:22:53;6.00;;;2.83;;
29774;SDS011;16676;51.202;6.774;2023-08-24T11:26:58;6.00;;;2.67;;
29774;SDS011;16676;51.202;6.774;2023-08-24T11:31:02;4.80;;;2.63;;
29774;SDS011;16676;51.202;6.774;2023-08-24T11:35:05;5.97;;;2.60;;
29774;SDS011;16676;51.202;6.774;2023-08-24T11:39:13;10.18;;;3.20;;
29774;SDS011;16676;51.202;6.774;2023-08-24T11:43:23;5.85;;;2.85;;
29774;SDS011;16676;51.202;6.774;2023-08-24T11:47:27;6.75;;;2.80;;
29774;SDS011;16676;51.202;6.774;2023-08-24T11:51:30;6.60;;;2.58;;
29774;SDS011;16676;51.202;6.774;2023-08-24T11:55:33;8.88;;;2.97;;
29774;SDS011;16676;51.202;6.774;2023-08-24T11:59:36;8.02;;;3.00;;
29774;SDS011;16676;51.202;6.774;2023-08-24T12:03:39;9.73;;;2.55;;
29774;SDS011;16676;51.202;6.774;2023-08-24T12:07:44;9.75;;;2.80;;
29774;SDS011;16676;51.202;6.774;2023-08-24T12:11:46;6.57;;;2.70;;
29774;SDS011;16676;51.202;6.774;2023-08-24T12:15:52;7.32;;;2.88;;
29774;SDS011;16676;51.202;6.774;2023-08-24T12:19:57;8.77;;;3.05;;
29774;SDS011;16676;51.202;6.774;2023-08-24T12:24:00;5.53;;;2.50;;
29774;SDS011;16676;51.202;6.774;2023-08-24T12:28:08;4.22;;;2.38;;
29774;SDS011;16676;51.202;6.774;2023-08-24T12:32:12;7.47;;;2.72;;
29774;SDS011;16676;51.202;6.774;2023-08-24T12:36:15;5.20;;;2.30;;
29774;SDS011;16676;51.202;6.774;2023-08-24T12:40:17;6.78;;;2.35;;
29774;SDS011;16676;51.202;6.774;2023-08-24T12:44:21;5.43;;;2.30;;
29774;SDS011;16676;51.202;6.774;2023-08-24T12:48:25;5.38;;;2.63;;
29774;SDS011;16676;51.202;6.774;2023-08-24T12:52:27;6.60;;;2.58;;
29774;SDS011;16676;51.202;6.774;2023-08-24T12:56:30;4.90;;;2.33;;
29774;SDS011;16676;51.202;6.774;2023-08-24T13:00:32;9.73;;;2.83;;
29774;SDS011;16676;51.202;6.774;2023-08-24T13:04:35;7.88;;;2.78;;
29774;SDS011;16676;51.202;6.774;2023-08-24T13:08:37;5.57;;;2.55;;
29774;SDS011;16676;51.202;6.774;2023-08-24T13:12:39;4.25;;;2.60;;
29774;SDS011;16676;51.202;6.774;2023-08-24T13:16:41;7.60;;;2.50;;
29774;SDS011;16676;51.202;6.774;2023-08-24T13:20:44;7.13;;;3.03;;
29774;SDS011;16676;51.202;6.774;2023-08-24T13:24:46;6.63;;;2.67;;
29774;SDS011;16676;51.202;6.774;2023-08-24T13:28:48;6.32;;;2.60;;
29774;SDS011;16676;51.202;6.774;2023-08-24T13:32:50;6.07;;;2.38;;
29774;SDS011;16676;51.202;6.774;2023-08-24T13:36:53;5.10;;;2.35;;
29774;SDS011;16676;51.202;6.774;2023-08-24T13:40:55;5.15;;;2.60;;
29774;SDS011;16676;51.202;6.774;2023-08-24T13:44:57;4.05;;;2.40;;
29774;SDS011;16676;51.202;6.774;2023-08-24T13:48:59;4.88;;;2.65;;
29774;SDS011;16676;51.202;6.774;2023-08-24T13:53:02;7.38;;;2.97;;
29774;SDS011;16676;51.202;6.774;2023-08-24T13:57:04;6.95;;;2.80;;
29774;SDS011;16676;51.202;6.774;2023-08-24T14:01:06;7.95;;;2.50;;
29774;SDS011;16676;51.202;6.774;2023-08-24T14:05:10;9.23;;;2.92;;
29774;SDS011;16676;51.202;6.774;2023-08-24T14:09:14;8.18;;;3.30;;
29774;SDS011;16676;51.202;6.774;2023-08-24T14:13:16;9.23;;;3.08;;
29774;SDS011;16676;51.202;6.774;2023-08-24T14:17:18;7.38;;;3.42;;
29774;SDS011;16676;51.202;6.774;2023-08-24T14:21:20;11.00;;;3.88;;
29774;SDS011;16676;51.202;6.774;2023-08-24T14:25:25;7.07;;;2.90;;
29774;SDS011;16676;51.202;6.774;2023-08-24T14:29:27;10.32;;;3.03;;
29774;SDS011;16676;51.202;6.774;2023-08-24T14:33:29;9.35;;;2.90;;
29774;SDS011;16676;51.202;6.774;2023-08-24T14:37:30;12.32;;;3.85;;
29774;SDS011;16676;51.202;6.774;2023-08-24T14:41:34;9.07;;;3.30;;
29774;SDS011;16676;51.202;6.774;2023-08-24T14:45:36;7.80;;;2.83;;
29774;SDS011;16676;51.202;6.774;2023-08-24T14:49:38;14.48;;;3.50;;
29774;SDS011;16676;51.202;6.774;2023-08-24T14:53:40;6.60;;;2.72;;
29774;SDS011;16676;51.202;6.774;2023-08-24T14:57:44;8.98;;;3.00;;
29774;SDS011;16676;51.202;6.774;2023-08-24T15:01:46;8.57;;;2.83;;
29774;SDS011;16676;51.202;6.774;2023-08-24T15:05:55;10.07;;;3.40;;
29774;SDS011;16676;51.202;6.774;2023-08-24T15:09:59;8.15;;;2.92;;
29774;SDS011;16676;51.202;6.774;2023-08-24T15:14:02;6.65;;;2.50;;
29774;SDS011;16676;51.202;6.774;2023-08-24T15:18:04;6.18;;;2.45;;
29774;SDS011;16676;51.202;6.774;2023-08-24T15:22:06;6.38;;;2.70;;
29774;SDS011;16676;51.202;6.774;2023-08-24T15:26:08;7.95;;;2.50;;
29774;SDS011;16676;51.202;6.774;2023-08-24T15:30:12;7.50;;;2.40;;
29774;SDS011;16676;51.202;6.774;2023-08-24T15:34:14;7.55;;;2.55;;
29774;SDS011;16676;51.202;6.774;2023-08-24T15:38:16;4.60;;;2.25;;
29774;SDS011;16676;51.202;6.774;2023-08-24T15:42:18;7.60;;;2.17;;
29774;SDS011;16676;51.202;6.774;2023-08-24T15:46:21;3.63;;;1.75;;
29774;SDS011;16676;51.202;6.774;2023-08-24T15:50:23;6.88;;;2.00;;
29774;SDS011;16676;51.202;6.774;2023-08-24T15:54:26;8.15;;;2.35;;
29774;SDS011;16676;51.202;6.774;2023-08-24T15:58:28;7.40;;;2.40;;
29774;SDS011;16676;51.202;6.774;2023-08-24T16:02:31;6.45;;;2.38;;
29774;SDS011;16676;51.202;6.774;2023-08-24T16:06:33;10.65;;;2.67;;
29774;SDS011;16676;51.202;6.774;2023-08-24T16:10:35;7.40;;;2.75;;
29774;SDS011;16676;51.202;6.774;2023-08-24T16:14:37;6.70;;;2.55;;
29774;SDS011;16676;51.202;6.774;2023-08-24T16:18:40;5.55;;;2.35;;
29774;SDS011;16676;51.202;6.774;2023-08-24T16:22:42;6.90;;;2.25;;
29774;SDS011;16676;51.202;6.774;2023-08-24T16:26:44;5.82;;;2.13;;
29774;SDS011;16676;51.202;6.774;2023-08-24T16:30:46;5.53;;;2.05;;
29774;SDS011;16676;51.202;6.774;2023-08-24T16:34:49;4.78;;;2.00;;
29774;SDS011;16676;51.202;6.774;2023-08-24T16:38:51;6.18;;;1.85;;
29774;SDS011;16676;51.202;6.774;2023-08-24T16:42:53;7.57;;;1.90;;
29774;SDS011;16676;51.202;6.774;2023-08-24T16:46:55;4.63;;;1.48;;
29774;SDS011;16676;51.202;6.774;2023-08-24T16:50:58;4.03;;;1.50;;
29774;SDS011;16676;51.202;6.774;2023-08-24T16:55:01;4.22;;;1.55;;
29774;SDS011;16676;51.202;6.774;2023-08-24T16:59:03;6.03;;;1.58;;
29774;SDS011;16676;51.202;6.774;2023-08-24T17:03:06;4.47;;;1.88;;
29774;SDS011;16676;51.202;6.774;2023-08-24T17:07:10;4.80;;;1.60;;
29774;SDS011;16676;51.202;6.774;2023-08-24T17:11:12;6.78;;;1.90;;
29774;SDS011;16676;51.202;6.774;2023-08-24T17:15:14;5.85;;;1.73;;
29774;SDS011;16676;51.202;6.774;2023-08-24T17:19:16;8.65;;;1.70;;
29774;SDS011;16676;51.202;6.774;2023-08-24T17:23:19;5.93;;;1.80;;
29774;SDS011;16676;51.202;6.774;2023-08-24T17:27:21;3.72;;;1.48;;
29774;SDS011;16676;51.202;6.774;2023-08-24T17:31:23;4.28;;;1.67;;
29774;SDS011;16676;51.202;6.774;2023-08-24T17:35:25;7.18;;;2.10;;
29774;SDS011;16676;51.202;6.774;2023-08-24T17:39:29;6.00;;;2.05;;
29774;SDS011;16676;51.202;6.774;2023-08-24T17:43:31;6.55;;;2.60;;
29774;SDS011;16676;51.202;6.774;2023-08-24T17:47:37;7.05;;;2.55;;
29774;SDS011;16676;51.202;6.774;2023-08-24T17:51:38;8.52;;;2.00;;
29774;SDS011;16676;51.202;6.774;2023-08-24T17:55:42;6.03;;;2.05;;
29774;SDS011;16676;51.202;6.774;2023-08-24T17:59:44;8.38;;;2.30;;
29774;SDS011;16676;51.202;6.774;2023-08-24T18:03:46;7.45;;;2.40;;
29774;SDS011;16676;51.202;6.774;2023-08-24T18:07:48;5.35;;;1.90;;
29774;SDS011;16676;51.202;6.774;2023-08-24T18:11:51;10.05;;;2.13;;
29774;SDS011;16676;51.202;6.774;2023-08-24T18:15:53;5.97;;;2.10;;
29774;SDS011;16676;51.202;6.774;2023-08-24T18:19:55;8.07;;;2.17;;
29774;SDS011;16676;51.202;6.774;2023-08-24T18:23:57;4.60;;;1.92;;
29774;SDS011;16676;51.202;6.774;2023-08-24T18:28:00;6.97;;;2.17;;
29774;SDS011;16676;51.202;6.774;2023-08-24T18:32:02;7.22;;;2.22;;
29774;SDS011;16676;51.202;6.774;2023-08-24T18:36:05;5.30;;;1.90;;
29774;SDS011;16676;51.202;6.774;2023-08-24T18:40:07;5.03;;;1.92;;
29774;SDS011;16676;51.202;6.774;2023-08-24T18:44:11;5.13;;;1.80;;
29774;SDS011;16676;51.202;6.774;2023-08-24T18:48:13;4.13;;;2.25;;
29774;SDS011;16676;51.202;6.774;2023-08-24T18:52:15;6.25;;;1.88;;
29774;SDS011;16676;51.202;6.774;2023-08-24T18:56:17;7.35;;;1.88;;
29774;SDS011;16676;51.202;6.774;2023-08-24T19:00:21;9.60;;;2.25;;
29774;SDS011;16676;51.202;6.774;2023-08-24T19:04:22;5.85;;;2.15;;
29774;SDS011;16676;51.202;6.774;2023-08-24T19:08:24;4.50;;;2.20;;
29774;SDS011;16676;51.202;6.774;2023-08-24T19:12:26;6.20;;;1.98;;
29774;SDS011;16676;51.202;6.774;2023-08-24T19:16:29;9.73;;;2.35;;
29774;SDS011;16676;51.202;6.774;2023-08-24T19:20:31;6.75;;;2.20;;
29774;SDS011;16676;51.202;6.774;2023-08-24T19:24:33;6.93;;;2.72;;
29774;SDS011;16676;51.202;6.774;2023-08-24T19:28:35;4.63;;;2.17;;
29774;SDS011;16676;51.202;6.774;2023-08-24T19:32:38;7.97;;;2.35;;
29774;SDS011;16676;51.202;6.774;2023-08-24T19:36:40;5.78;;;2.25;;
29774;SDS011;16676;51.202;6.774;2023-08-24T19:40:42;4.72;;;1.98;;
29774;SDS011;16676;51.202;6.774;2023-08-24T19:44:45;7.07;;;2.45;;
29774;SDS011;16676;51.202;6.774;2023-08-24T19:48:48;4.22;;;2.08;;
29774;SDS011;16676;51.202;6.774;2023-08-24T19:52:50;4.50;;;2.25;;
29774;SDS011;16676;51.202;6.774;2023-08-24T19:56:52;4.65;;;2.10;;
29774;SDS011;16676;51.202;6.774;2023-08-24T20:00:54;9.93;;;3.08;;
29774;SDS011;16676;51.202;6.774;2023-08-24T20:04:57;8.73;;;2.42;;
29774;SDS011;16676;51.202;6.774;2023-08-24T20:08:59;7.18;;;2.65;;
29774;SDS011;16676;51.202;6.774;2023-08-24T20:13:03;5.13;;;2.60;;
29774;SDS011;16676;51.202;6.774;2023-08-24T20:17:05;6.55;;;2.35;;
29774;SDS011;16676;51.202;6.774;2023-08-24T20:21:08;8.27;;;2.70;;
29774;SDS011;16676;51.202;6.774;2023-08-24T20:25:11;6.13;;;2.40;;
29774;SDS011;16676;51.202;6.774;2023-08-24T20:29:13;7.68;;;2.58;;
29774;SDS011;16676;51.202;6.774;2023-08-24T20:33:15;5.75;;;2.50;;
29774;SDS011;16676;51.202;6.774;2023-08-24T20:37:18;4.45;;;2.13;;
29774;SDS011;16676;51.202;6.774;2023-08-24T20:41:20;6.22;;;2.63;;
29774;SDS011;16676;51.202;6.774;2023-08-24T20:45:22;4.32;;;2.05;;
29774;SDS011;16676;51.202;6.774;2023-08-24T20:49:24;4.35;;;2.30;;
29774;SDS011;16676;51.202;6.774;2023-08-24T20:53:27;5.53;;;2.03;;
29774;SDS011;16676;51.202;6.774;2023-08-24T20:57:29;6.80;;;2.35;;
29774;SDS011;16676;51.202;6.774;2023-08-24T21:01:33;5.43;;;2.58;;
29774;SDS011;16676;51.202;6.774;2023-08-24T21:05:35;6.85;;;3.20;;
29774;SDS011;16676;51.202;6.774;2023-08-24T21:09:38;6.95;;;2.30;;
29774;SDS011;16676;51.202;6.774;2023-08-24T21:13:40;4.22;;;1.88;;
29774;SDS011;16676;51.202;6.774;2023-08-24T21:17:42;6.07;;;2.03;;
29774;SDS011;16676;51.202;6.774;2023-08-24T21:21:44;5.13;;;2.35;;
29774;SDS011;16676;51.202;6.774;2023-08-24T21:25:47;3.58;;;1.80;;
29774;SDS011;16676;51.202;6.774;2023-08-24T21:29:49;6.40;;;2.05;;
29774;SDS011;16676;51.202;6.774;2023-08-24T21:33:51;3.85;;;2.00;;
29774;SDS011;16676;51.202;6.774;2023-08-24T21:37:53;5.30;;;2.30;;
29774;SDS011;16676;51.202;6.774;2023-08-24T21:41:57;7.03;;;2.25;;
29774;SDS011;16676;51.202;6.774;2023-08-24T21:45:59;5.85;;;2.03;;
29774;SDS011;16676;51.202;6.774;2023-08-24T21:50:01;5.88;;;2.40;;
29774;SDS011;16676;51.202;6.774;2023-08-24T21:54:05;4.63;;;2.03;;
29774;SDS011;16676;51.202;6.774;2023-08-24T21:58:08;5.43;;;2.03;;
29774;SDS011;16676;51.202;6.774;2023-08-24T22:02:13;5.97;;;1.98;;
29774;SDS011;16676;51.202;6.774;2023-08-24T22:06:14;3.78;;;1.83;;
29774;SDS011;16676;51.202;6.774;2023-08-24T22:10:16;6.68;;;2.50;;
29774;SDS011;16676;51.202;6.774;2023-08-24T22:14:20;6.82;;;2.58;;
29774;SDS011;16676;51.202;6.774;2023-08-24T22:18:22;5.63;;;2.70;;
29774;SDS011;16676;51.202;6.774;2023-08-24T22:22:24;4.97;;;2.45;;
29774;SDS011;16676;51.202;6.774;2023-08-24T22:26:25;10.07;;;2.53;;
29774;SDS011;16676;51.202;6.774;2023-08-24T22:30:29;5.65;;;2.30;;
29774;SDS011;16676;51.202;6.774;2023-08-24T22:34:31;6.75;;;2.75;;
29774;SDS011;16676;51.202;6.774;2023-08-24T22:38:33;5.93;;;2.50;;
29774;SDS011;16676;51.202;6.774;2023-08-24T22:42:35;11.57;;;3.00;;
29774;SDS011;16676;51.202;6.774;2023-08-24T22:46:38;9.20;;;2.45;;
29774;SDS011;16676;51.202;6.774;2023-08-24T22:50:41;6.47;;;2.70;;
29774;SDS011;16676;51.202;6.774;2023-08-24T22:54:42;7.68;;;2.40;;
29774;SDS011;16676;51.202;6.774;2023-08-24T22:58:44;5.53;;;2.63;;
29774;SDS011;16676;51.202;6.774;2023-08-24T23:02:48;6.28;;;2.38;;
29774;SDS011;16676;51.202;6.774;2023-08-24T23:07:02;5.38;;;2.53;;
29774;SDS011;16676;51.202;6.774;2023-08-24T23:11:05;5.55;;;2.45;;
29774;SDS011;16676;51.202;6.774;2023-08-24T23:15:07;4.53;;;2.08;;
29774;SDS011;16676;51.202;6.774;2023-08-24T23:19:12;7.80;;;2.40;;
29774;SDS011;16676;51.202;6.774;2023-08-24T23:23:14;6.65;;;2.50;;
29774;SDS011;16676;51.202;6.774;2023-08-24T23:27:16;7.72;;;3.35;;
29774;SDS011;16676;51.202;6.774;2023-08-24T23:31:18;8.25;;;3.55;;
29774;SDS011;16676;51.202;6.774;2023-08-24T23:35:21;6.60;;;2.90;;
29774;SDS011;16676;51.202;6.774;2023-08-24T23:39:23;6.78;;;3.13;;
29774;SDS011;16676;51.202;6.774;2023-08-24T23:43:26;8.90;;;3.72;;
29774;SDS011;16676;51.202;6.774;2023-08-24T23:47:27;6.30;;;3.72;;
29774;SDS011;16676;51.202;6.774;2023-08-24T23:51:31;9.52;;;3.63;;
29774;SDS011;16676;51.202;6.774;2023-08-24T23:55:33;9.85;;;3.80;;
29774;SDS011;16676;51.202;6.774;2023-08-24T23:59:35;6.97;;;3.35;;
